Terminal Aerodrome Forecast
Issued by NWS

Home | Current Version | Previous Version | Text Only | Print | Product List | Glossary On
Versions: 1 2 3 4 5 6 7 8 9 10 11 12 13 14 15 16 17 18 19 20 21
000
FTAK31 PANC 270540
TAFAVD
TAF
PAVD 270540Z 2706/2806 27010KT P6SM -RA SCT015 OVC045
     FM270900 VRB05KT P6SM -RA BKN030
     FM271800 06005KT P6SM -SHRA SCT025 BKN045
     FM280300 VRB05KT 5SM -RA BR BKN025
      AMD LTD TO CLD VIS AND WIND=

USA.gov is the U.S. government's official web portal to all federal, state and local government web resources and services.